Time;durP1;ratioP1;P1;durP2;ratioP2;P2;SDS_P1;SDS_P2;PMS_P1;PMS_P2;Temp;Humidity;BMP_temperature;BMP_pressure;BME280_temperature;BME280_humidity;BME280_pressure;Samples;Min_cycle;Max_cycle;Signal;HPM_P1;HPM_P2
2023/02/15 00:00:24;;;;;;;20.13;12.02;;;;;;;-0.81;72.86;101867.94;30855432;28;97542;-69
2023/02/15 00:31:22;;;;;;;25.83;12.88;;;;;;;-1.01;73.46;101845.97;30851034;28;96991;-70
2023/02/15 00:46:22;;;;;;;41.28;19.05;;;;;;;-1.25;73.77;101837.22;30852177;28;96777;-65
2023/02/15 01:01:23;;;;;;;49.25;19.77;;;;;;;-1.63;73.85;101834.16;30869343;28;96731;-62
2023/02/15 01:16:26;;;;;;;33.15;18.05;;;;;;;-1.75;73.79;101840.63;30867739;28;98611;-70
2023/02/15 01:31:26;;;;;;;39.20;18.15;;;;;;;-1.97;74.85;101815.22;30866678;28;97632;-70
2023/02/15 01:46:38;;;;;;;37.78;16.88;;;;;;;-2.03;75.01;101797.13;30864685;28;96752;-63
2023/02/15 02:01:38;;;;;;;38.05;18.38;;;;;;;-2.16;75.49;101785.34;30862695;28;97029;-72
2023/02/15 02:16:46;;;;;;;38.67;17.70;;;;;;;-2.13;76.01;101761.75;30861960;28;96747;-68
2023/02/15 02:31:50;;;;;;;34.00;18.27;;;;;;;-2.24;75.72;101754.28;30860996;28;97018;-68
2023/02/15 02:46:56;;;;;;;34.75;17.35;;;;;;;-2.17;76.71;101720.97;30859675;28;96742;-67
2023/02/15 03:02:04;;;;;;;31.67;16.00;;;;;;;-2.18;77.02;101712.28;30858193;28;96987;-66
2023/02/15 03:17:07;;;;;;;31.13;17.33;;;;;;;-2.19;77.38;101710.59;30856652;28;96779;-68
2023/02/15 03:32:14;;;;;;;33.38;19.58;;;;;;;-2.30;76.88;101705.72;30855329;28;96718;-63
2023/02/15 03:47:26;;;;;;;33.58;16.88;;;;;;;-2.44;77.13;101694.88;30852665;28;96567;-66
2023/02/15 04:02:37;;;;;;;39.53;20.92;;;;;;;-2.61;77.22;101719.75;30853601;28;96961;-66
2023/02/15 04:17:37;;;;;;;46.25;19.75;;;;;;;-2.79;77.74;101705.53;30850066;28;96792;-70
2023/02/15 04:32:38;;;;;;;30.90;18.42;;;;;;;-2.91;77.32;101682.44;30867879;28;97222;-66
2023/02/15 04:47:38;;;;;;;35.35;16.45;;;;;;;-2.88;78.09;101677.13;30869373;28;98194;-62
2023/02/15 05:02:39;;;;;;;38.22;16.20;;;;;;;-2.80;78.83;101682.06;30864745;28;98140;-69
2023/02/15 05:17:39;;;;;;;37.08;16.85;;;;;;;-2.91;78.09;101685.88;30863262;28;97003;-62
2023/02/15 05:32:40;;;;;;;36.33;17.50;;;;;;;-2.91;78.49;101675.44;30861748;28;97599;-69
2023/02/15 05:47:40;;;;;;;43.28;18.95;;;;;;;-2.96;79.04;101663.47;30859865;28;96686;-66
2023/02/15 06:02:40;;;;;;;38.10;17.60;;;;;;;-2.95;79.47;101665.16;30823039;28;97206;-63
2023/02/15 06:17:42;;;;;;;39.83;17.98;;;;;;;-2.93;79.58;101665.97;30806293;28;97590;-67
2023/02/15 06:32:42;;;;;;;40.80;18.98;;;;;;;-2.67;79.77;101682.56;30733823;28;97032;-70
2023/02/15 06:47:43;;;;;;;37.33;19.42;;;;;;;-2.10;80.05;101663.28;30725008;28;96932;-63
2023/02/15 07:02:44;;;;;;;34.55;18.27;;;;;;;-1.12;80.71;101676.34;30825029;28;97398;-65
2023/02/15 07:17:44;;;;;;;34.00;16.42;;;;;;;0.26;80.58;101655.91;30820222;28;97247;-63
2023/02/15 07:48:05;;;;;;;36.92;20.27;;;;;;;2.84;77.78;101647.63;30736635;28;97252;-64
2023/02/15 08:03:14;;;;;;;28.35;15.07;;;;;;;3.31;74.07;101614.31;30786156;28;97170;-64
2023/02/15 08:18:15;;;;;;;23.88;15.20;;;;;;;4.02;74.08;101615.44;30819811;28;97843;-64
2023/02/15 08:33:17;;;;;;;28.20;14.40;;;;;;;5.57;71.91;101593.28;30746612;28;96924;-64
2023/02/15 08:48:18;;;;;;;26.98;15.02;;;;;;;7.11;68.46;101579.84;30770880;28;97033;-69
2023/02/15 09:03:18;;;;;;;25.30;13.43;;;;;;;16.23;53.38;101588.94;30742219;28;97383;-68
2023/02/15 09:18:18;;;;;;;22.65;14.48;;;;;;;22.36;39.33;101574.44;30741503;28;97035;-68
2023/02/15 09:33:19;;;;;;;21.13;13.80;;;;;;;24.91;31.92;101556.63;30742879;28;97237;-69
2023/02/15 09:48:41;;;;;;;21.40;13.27;;;;;;;25.31;25.75;101553.25;30740332;28;96688;-66
2023/02/15 10:04:00;;;;;;;21.23;14.13;;;;;;;26.76;22.87;101548.97;30854871;28;96755;-68
2023/02/15 10:19:15;;;;;;;21.40;14.67;;;;;;;28.39;19.37;101529.75;30857481;28;97301;-64
2023/02/15 10:34:20;;;;;;;23.80;16.10;;;;;;;27.34;19.04;101508.63;30788110;28;97628;-68
2023/02/15 10:49:49;;;;;;;20.80;14.17;;;;;;;28.80;17.65;101496.44;30857996;28;96953;-70
2023/02/15 11:05:20;;;;;;;20.40;15.13;;;;;;;31.64;15.88;101471.38;30833590;28;97608;-66
2023/02/15 11:20:28;;;;;;;22.33;15.83;;;;;;;32.49;14.56;101452.16;30854945;28;96687;-65
2023/02/15 11:35:37;;;;;;;21.33;16.57;;;;;;;32.83;14.44;101438.34;30852413;28;97563;-66
2023/02/15 11:50:38;;;;;;;22.93;18.60;;;;;;;34.58;13.40;101414.00;30851501;28;97245;-69
2023/02/15 12:05:42;;;;;;;28.13;19.90;;;;;;;33.32;13.76;101388.75;30862649;28;97168;-67
2023/02/15 12:20:43;;;;;;;22.73;17.47;;;;;;;34.08;13.78;101375.78;30851521;28;96683;-67
2023/02/15 12:35:44;;;;;;;22.83;18.17;;;;;;;33.94;13.10;101350.03;30733574;28;97461;-68
2023/02/15 12:50:51;;;;;;;24.27;18.60;;;;;;;35.36;12.89;101341.38;30736966;28;97350;-69
2023/02/15 13:05:55;;;;;;;21.57;17.70;;;;;;;34.35;12.81;101329.19;30745241;28;97189;-69
2023/02/15 13:20:56;;;;;;;24.20;17.80;;;;;;;36.23;12.25;101310.75;30750001;28;97163;-68
2023/02/15 13:36:08;;;;;;;20.77;17.92;;;;;;;35.87;12.21;101297.81;30750006;28;97412;-73
2023/02/15 13:51:30;;;;;;;21.67;17.93;;;;;;;33.48;13.42;101288.00;30737575;28;97321;-71
2023/02/15 14:06:49;;;;;;;20.40;17.20;;;;;;;31.26;14.65;101282.94;30819296;28;97454;-69
2023/02/15 14:22:02;;;;;;;21.87;17.27;;;;;;;29.42;16.47;101277.34;30855640;28;96730;-72
2023/02/15 14:37:03;;;;;;;22.50;16.97;;;;;;;28.64;17.23;101266.03;30848734;28;97504;-74
2023/02/15 14:52:08;;;;;;;21.33;16.07;;;;;;;26.74;18.77;101264.97;30843983;28;97618;-67
2023/02/15 15:07:22;;;;;;;22.20;15.93;;;;;;;23.09;22.01;101264.19;30814337;28;97094;-70
2023/02/15 15:22:24;;;;;;;22.50;16.50;;;;;;;20.68;24.81;101256.81;30731131;28;96825;-66
2023/02/15 15:38:00;;;;;;;26.30;15.73;;;;;;;17.18;29.01;101255.94;30716074;28;97210;-65
2023/02/15 15:53:03;;;;;;;28.70;14.80;;;;;;;12.63;35.04;101232.53;30722838;28;97007;-64
2023/02/15 16:08:04;;;;;;;25.07;14.83;;;;;;;9.39;40.15;101222.50;30837442;28;97267;-63
2023/02/15 16:23:30;;;;;;;26.47;13.70;;;;;;;7.50;44.25;101216.34;30847899;28;96894;-63
2023/02/15 16:38:43;;;;;;;34.50;16.23;;;;;;;6.28;46.74;101211.84;30856032;28;97643;-64
2023/02/15 16:53:47;;;;;;;33.95;15.98;;;;;;;5.39;48.98;101209.53;30744553;28;97520;-67
2023/02/15 17:08:48;;;;;;;37.28;17.73;;;;;;;4.87;51.21;101208.81;30741060;28;97319;-71
2023/02/15 17:23:51;;;;;;;43.65;21.08;;;;;;;4.42;52.84;101198.72;30860735;28;96689;-61
2023/02/15 17:38:57;;;;;;;38.88;19.30;;;;;;;3.98;54.83;101184.97;30860983;28;96751;-63
2023/02/15 18:24:38;;;;;;;48.75;24.75;;;;;;;2.94;59.05;101160.97;30850805;28;98313;-68
2023/02/15 18:39:42;;;;;;;51.92;24.33;;;;;;;2.50;59.84;101150.53;30843658;28;97493;-72
2023/02/15 18:54:44;;;;;;;47.43;23.07;;;;;;;2.13;61.15;101144.88;30790892;28;97107;-67
2023/02/15 19:09:48;;;;;;;63.53;26.90;;;;;;;1.80;61.69;101142.44;30791430;28;96946;-62
2023/02/15 19:24:50;;;;;;;56.95;25.05;;;;;;;1.40;62.82;101114.09;30841116;28;96861;-66
2023/02/15 19:39:51;;;;;;;45.05;21.08;;;;;;;1.15;63.53;101114.66;30832657;28;96613;-64
2023/02/15 19:54:53;;;;;;;55.75;25.77;;;;;;;0.75;64.42;101107.22;30787776;28;97535;-66
2023/02/15 20:09:54;;;;;;;59.15;25.75;;;;;;;0.56;65.29;101098.66;30855469;28;96690;-66
2023/02/15 20:24:55;;;;;;;65.72;31.02;;;;;;;0.26;65.73;101104.59;30871910;28;96709;-65
2023/02/15 20:39:56;;;;;;;55.97;27.02;;;;;;;0.02;66.76;101091.03;30865623;28;97379;-66
2023/02/15 20:54:56;;;;;;;68.53;30.02;;;;;;;-0.12;67.24;101084.75;30867695;28;96614;-64
2023/02/15 21:09:59;;;;;;;64.40;27.45;;;;;;;-0.09;67.94;101074.09;30865813;28;97096;-67
2023/02/15 21:24:59;;;;;;;83.97;34.22;;;;;;;-0.27;68.42;101077.69;30867317;28;96940;-70
2023/02/15 21:40:01;;;;;;;69.97;31.15;;;;;;;-0.45;68.06;101061.13;30864777;28;96641;-67
2023/02/15 21:55:09;;;;;;;66.47;29.85;;;;;;;-0.56;68.91;101052.06;30862796;28;97127;-67
2023/02/15 22:10:10;;;;;;;68.05;29.45;;;;;;;-0.74;69.00;101039.88;30850147;28;96586;-66
2023/02/15 22:25:13;;;;;;;71.10;30.98;;;;;;;-0.94;69.26;101030.41;30853097;28;96533;-67
2023/02/15 22:40:15;;;;;;;89.25;32.47;;;;;;;-1.07;69.94;101028.38;30859260;28;96824;-67
2023/02/15 22:55:18;;;;;;;65.13;28.33;;;;;;;-1.30;70.12;101012.97;30752457;28;97091;-68
2023/02/15 23:10:21;;;;;;;73.25;30.65;;;;;;;-1.37;70.75;101017.63;30730213;28;96602;-66
2023/02/15 23:25:24;;;;;;;67.25;29.42;;;;;;;-1.51;71.13;101020.91;30727160;28;97181;-66
2023/02/15 23:55:44;;;;;;;63.65;28.02;;;;;;;-1.73;71.36;101008.00;30854183;28;97191;-67
